sensor_id;sensor_type;location;lat;lon;timestamp;P1;durP1;ratioP1;P2;durP2;ratioP2
7529;SDS011;3806;52.270;10.544;2023-08-20T00:02:15;15.18;;;7.95;;
7529;SDS011;3806;52.270;10.544;2023-08-20T00:04:43;14.55;;;8.30;;
7529;SDS011;3806;52.270;10.544;2023-08-20T00:07:11;13.35;;;7.97;;
7529;SDS011;3806;52.270;10.544;2023-08-20T00:09:37;12.73;;;7.80;;
7529;SDS011;3806;52.270;10.544;2023-08-20T00:12:02;12.45;;;8.75;;
7529;SDS011;3806;52.270;10.544;2023-08-20T00:17:18;12.10;;;8.57;;
7529;SDS011;3806;52.270;10.544;2023-08-20T00:19:44;13.05;;;8.38;;
7529;SDS011;3806;52.270;10.544;2023-08-20T00:22:10;11.77;;;8.27;;
7529;SDS011;3806;52.270;10.544;2023-08-20T00:24:35;13.63;;;8.80;;
7529;SDS011;3806;52.270;10.544;2023-08-20T00:27:01;11.40;;;8.15;;
7529;SDS011;3806;52.270;10.544;2023-08-20T00:29:27;12.20;;;9.10;;
7529;SDS011;3806;52.270;10.544;2023-08-20T00:31:52;13.35;;;9.32;;
7529;SDS011;3806;52.270;10.544;2023-08-20T00:34:18;13.77;;;8.85;;
7529;SDS011;3806;52.270;10.544;2023-08-20T00:36:43;15.77;;;9.45;;
7529;SDS011;3806;52.270;10.544;2023-08-20T00:39:09;17.42;;;9.00;;
7529;SDS011;3806;52.270;10.544;2023-08-20T00:41:34;13.65;;;9.90;;
7529;SDS011;3806;52.270;10.544;2023-08-20T00:44:00;13.85;;;10.05;;
7529;SDS011;3806;52.270;10.544;2023-08-20T00:46:25;14.10;;;9.48;;
7529;SDS011;3806;52.270;10.544;2023-08-20T00:48:51;12.90;;;9.02;;
7529;SDS011;3806;52.270;10.544;2023-08-20T00:51:17;12.55;;;9.02;;
7529;SDS011;3806;52.270;10.544;2023-08-20T00:53:42;16.35;;;9.77;;
7529;SDS011;3806;52.270;10.544;2023-08-20T00:56:09;16.45;;;10.27;;
7529;SDS011;3806;52.270;10.544;2023-08-20T00:58:34;14.18;;;9.50;;
7529;SDS011;3806;52.270;10.544;2023-08-20T01:01:00;15.60;;;10.35;;
7529;SDS011;3806;52.270;10.544;2023-08-20T01:03:25;16.70;;;9.88;;
7529;SDS011;3806;52.270;10.544;2023-08-20T01:06:01;17.25;;;11.38;;
7529;SDS011;3806;52.270;10.544;2023-08-20T01:11:10;14.88;;;9.38;;
7529;SDS011;3806;52.270;10.544;2023-08-20T01:13:47;21.35;;;9.73;;
7529;SDS011;3806;52.270;10.544;2023-08-20T01:16:12;13.00;;;9.77;;
7529;SDS011;3806;52.270;10.544;2023-08-20T01:18:38;15.80;;;9.65;;
7529;SDS011;3806;52.270;10.544;2023-08-20T01:21:06;13.55;;;10.27;;
7529;SDS011;3806;52.270;10.544;2023-08-20T01:24:28;13.75;;;9.63;;
7529;SDS011;3806;52.270;10.544;2023-08-20T01:26:52;15.57;;;9.68;;
7529;SDS011;3806;52.270;10.544;2023-08-20T01:29:23;15.27;;;10.10;;
7529;SDS011;3806;52.270;10.544;2023-08-20T01:31:50;15.00;;;9.93;;
7529;SDS011;3806;52.270;10.544;2023-08-20T01:34:17;14.23;;;9.45;;
7529;SDS011;3806;52.270;10.544;2023-08-20T01:36:42;13.07;;;8.48;;
7529;SDS011;3806;52.270;10.544;2023-08-20T01:39:08;15.65;;;9.55;;
7529;SDS011;3806;52.270;10.544;2023-08-20T01:41:34;13.70;;;9.48;;
7529;SDS011;3806;52.270;10.544;2023-08-20T01:43:59;13.88;;;9.73;;
7529;SDS011;3806;52.270;10.544;2023-08-20T01:46:25;13.45;;;9.30;;
7529;SDS011;3806;52.270;10.544;2023-08-20T01:48:50;14.32;;;9.07;;
7529;SDS011;3806;52.270;10.544;2023-08-20T01:51:16;11.88;;;8.75;;
7529;SDS011;3806;52.270;10.544;2023-08-20T01:53:41;14.98;;;9.50;;
7529;SDS011;3806;52.270;10.544;2023-08-20T01:56:10;14.27;;;9.02;;
7529;SDS011;3806;52.270;10.544;2023-08-20T01:58:37;17.13;;;9.93;;
7529;SDS011;3806;52.270;10.544;2023-08-20T02:01:02;14.13;;;8.77;;
7529;SDS011;3806;52.270;10.544;2023-08-20T02:03:28;14.80;;;8.75;;
7529;SDS011;3806;52.270;10.544;2023-08-20T02:05:53;15.98;;;9.38;;
7529;SDS011;3806;52.270;10.544;2023-08-20T02:08:19;15.95;;;9.93;;
7529;SDS011;3806;52.270;10.544;2023-08-20T02:10:45;14.65;;;8.80;;
7529;SDS011;3806;52.270;10.544;2023-08-20T02:13:11;14.50;;;9.68;;
7529;SDS011;3806;52.270;10.544;2023-08-20T02:15:36;18.00;;;10.43;;
7529;SDS011;3806;52.270;10.544;2023-08-20T02:18:02;15.65;;;10.15;;
7529;SDS011;3806;52.270;10.544;2023-08-20T02:20:28;15.98;;;9.45;;
7529;SDS011;3806;52.270;10.544;2023-08-20T02:22:53;14.27;;;9.57;;
7529;SDS011;3806;52.270;10.544;2023-08-20T02:25:19;13.65;;;9.05;;
7529;SDS011;3806;52.270;10.544;2023-08-20T02:27:44;14.95;;;9.48;;
7529;SDS011;3806;52.270;10.544;2023-08-20T02:30:10;16.48;;;9.80;;
7529;SDS011;3806;52.270;10.544;2023-08-20T02:32:38;15.10;;;9.75;;
7529;SDS011;3806;52.270;10.544;2023-08-20T02:35:04;15.30;;;10.15;;
7529;SDS011;3806;52.270;10.544;2023-08-20T02:37:30;15.32;;;8.98;;
7529;SDS011;3806;52.270;10.544;2023-08-20T02:39:56;14.77;;;9.65;;
7529;SDS011;3806;52.270;10.544;2023-08-20T02:42:22;16.92;;;9.30;;
7529;SDS011;3806;52.270;10.544;2023-08-20T02:44:47;15.73;;;9.05;;
7529;SDS011;3806;52.270;10.544;2023-08-20T02:47:13;13.68;;;9.15;;
7529;SDS011;3806;52.270;10.544;2023-08-20T02:49:38;16.27;;;10.10;;
7529;SDS011;3806;52.270;10.544;2023-08-20T02:52:04;15.80;;;9.75;;
7529;SDS011;3806;52.270;10.544;2023-08-20T02:54:29;16.92;;;9.00;;
7529;SDS011;3806;52.270;10.544;2023-08-20T02:56:57;15.85;;;9.57;;
7529;SDS011;3806;52.270;10.544;2023-08-20T02:59:23;11.73;;;8.75;;
7529;SDS011;3806;52.270;10.544;2023-08-20T03:01:48;16.55;;;10.02;;
7529;SDS011;3806;52.270;10.544;2023-08-20T03:04:14;14.43;;;10.07;;
7529;SDS011;3806;52.270;10.544;2023-08-20T03:06:39;15.18;;;9.05;;
7529;SDS011;3806;52.270;10.544;2023-08-20T03:09:05;15.70;;;9.93;;
7529;SDS011;3806;52.270;10.544;2023-08-20T03:11:30;14.27;;;9.27;;
7529;SDS011;3806;52.270;10.544;2023-08-20T03:13:56;16.45;;;9.80;;
7529;SDS011;3806;52.270;10.544;2023-08-20T03:16:21;16.17;;;9.25;;
7529;SDS011;3806;52.270;10.544;2023-08-20T03:18:47;13.60;;;9.55;;
7529;SDS011;3806;52.270;10.544;2023-08-20T03:21:13;15.98;;;9.15;;
7529;SDS011;3806;52.270;10.544;2023-08-20T03:23:38;13.23;;;8.90;;
7529;SDS011;3806;52.270;10.544;2023-08-20T03:26:04;12.68;;;8.88;;
7529;SDS011;3806;52.270;10.544;2023-08-20T03:28:29;17.42;;;10.80;;
7529;SDS011;3806;52.270;10.544;2023-08-20T03:30:58;12.63;;;9.55;;
7529;SDS011;3806;52.270;10.544;2023-08-20T03:33:25;13.10;;;9.55;;
7529;SDS011;3806;52.270;10.544;2023-08-20T03:35:51;14.57;;;9.05;;
7529;SDS011;3806;52.270;10.544;2023-08-20T03:38:17;13.30;;;8.88;;
7529;SDS011;3806;52.270;10.544;2023-08-20T03:40:42;16.38;;;10.10;;
7529;SDS011;3806;52.270;10.544;2023-08-20T03:43:08;15.93;;;8.90;;
7529;SDS011;3806;52.270;10.544;2023-08-20T03:45:33;14.98;;;9.48;;
7529;SDS011;3806;52.270;10.544;2023-08-20T03:47:59;20.25;;;10.75;;
7529;SDS011;3806;52.270;10.544;2023-08-20T03:50:24;15.82;;;9.93;;
7529;SDS011;3806;52.270;10.544;2023-08-20T03:52:50;13.00;;;9.50;;
7529;SDS011;3806;52.270;10.544;2023-08-20T03:55:16;14.82;;;9.90;;
7529;SDS011;3806;52.270;10.544;2023-08-20T03:57:41;16.20;;;9.68;;
7529;SDS011;3806;52.270;10.544;2023-08-20T04:00:07;14.15;;;9.00;;
7529;SDS011;3806;52.270;10.544;2023-08-20T04:02:34;15.13;;;9.55;;
7529;SDS011;3806;52.270;10.544;2023-08-20T04:05:00;17.25;;;10.68;;
7529;SDS011;3806;52.270;10.544;2023-08-20T04:07:25;16.48;;;9.80;;
7529;SDS011;3806;52.270;10.544;2023-08-20T04:09:51;15.27;;;9.02;;
7529;SDS011;3806;52.270;10.544;2023-08-20T04:12:16;13.50;;;8.52;;
7529;SDS011;3806;52.270;10.544;2023-08-20T04:14:42;20.35;;;9.25;;
7529;SDS011;3806;52.270;10.544;2023-08-20T04:17:07;14.07;;;8.93;;
7529;SDS011;3806;52.270;10.544;2023-08-20T04:19:33;15.45;;;9.13;;
7529;SDS011;3806;52.270;10.544;2023-08-20T04:21:58;17.50;;;11.13;;
7529;SDS011;3806;52.270;10.544;2023-08-20T04:24:24;14.43;;;9.13;;
7529;SDS011;3806;52.270;10.544;2023-08-20T04:26:49;14.65;;;9.27;;
7529;SDS011;3806;52.270;10.544;2023-08-20T04:29:15;17.00;;;10.02;;
7529;SDS011;3806;52.270;10.544;2023-08-20T04:31:40;16.45;;;9.43;;
7529;SDS011;3806;52.270;10.544;2023-08-20T04:34:06;15.30;;;9.50;;
7529;SDS011;3806;52.270;10.544;2023-08-20T04:36:31;15.95;;;8.90;;
7529;SDS011;3806;52.270;10.544;2023-08-20T04:38:57;13.18;;;8.82;;
7529;SDS011;3806;52.270;10.544;2023-08-20T04:41:22;12.38;;;7.90;;
7529;SDS011;3806;52.270;10.544;2023-08-20T04:43:47;12.80;;;7.90;;
7529;SDS011;3806;52.270;10.544;2023-08-20T04:46:13;13.02;;;9.13;;
7529;SDS011;3806;52.270;10.544;2023-08-20T04:48:40;11.35;;;8.05;;
7529;SDS011;3806;52.270;10.544;2023-08-20T04:51:05;12.90;;;9.32;;
7529;SDS011;3806;52.270;10.544;2023-08-20T04:53:31;14.85;;;9.18;;
7529;SDS011;3806;52.270;10.544;2023-08-20T04:55:57;14.40;;;8.60;;
7529;SDS011;3806;52.270;10.544;2023-08-20T04:58:23;14.57;;;8.30;;
7529;SDS011;3806;52.270;10.544;2023-08-20T05:00:49;13.50;;;8.15;;
7529;SDS011;3806;52.270;10.544;2023-08-20T05:03:14;13.90;;;7.97;;
7529;SDS011;3806;52.270;10.544;2023-08-20T05:05:40;12.85;;;8.50;;
7529;SDS011;3806;52.270;10.544;2023-08-20T05:08:06;15.48;;;9.68;;
7529;SDS011;3806;52.270;10.544;2023-08-20T05:10:32;16.15;;;8.55;;
7529;SDS011;3806;52.270;10.544;2023-08-20T05:13:01;12.48;;;8.95;;
7529;SDS011;3806;52.270;10.544;2023-08-20T05:15:26;12.13;;;8.10;;
7529;SDS011;3806;52.270;10.544;2023-08-20T05:17:52;16.40;;;8.57;;
7529;SDS011;3806;52.270;10.544;2023-08-20T05:20:17;14.65;;;7.90;;
7529;SDS011;3806;52.270;10.544;2023-08-20T05:22:43;16.77;;;8.32;;
7529;SDS011;3806;52.270;10.544;2023-08-20T05:25:08;13.85;;;8.25;;
7529;SDS011;3806;52.270;10.544;2023-08-20T05:27:34;13.50;;;8.90;;
7529;SDS011;3806;52.270;10.544;2023-08-20T05:29:59;13.40;;;8.65;;
7529;SDS011;3806;52.270;10.544;2023-08-20T05:32:25;15.50;;;7.88;;
7529;SDS011;3806;52.270;10.544;2023-08-20T05:34:50;13.90;;;7.90;;
7529;SDS011;3806;52.270;10.544;2023-08-20T05:37:16;12.68;;;7.55;;
7529;SDS011;3806;52.270;10.544;2023-08-20T05:39:42;11.60;;;7.93;;
7529;SDS011;3806;52.270;10.544;2023-08-20T05:42:08;13.15;;;6.65;;
7529;SDS011;3806;52.270;10.544;2023-08-20T05:44:34;11.68;;;6.78;;
7529;SDS011;3806;52.270;10.544;2023-08-20T05:46:59;12.55;;;8.00;;
7529;SDS011;3806;52.270;10.544;2023-08-20T05:49:26;12.48;;;6.70;;
7529;SDS011;3806;52.270;10.544;2023-08-20T05:51:51;9.40;;;6.60;;
7529;SDS011;3806;52.270;10.544;2023-08-20T05:54:17;10.18;;;6.22;;
7529;SDS011;3806;52.270;10.544;2023-08-20T05:56:43;10.25;;;6.18;;
7529;SDS011;3806;52.270;10.544;2023-08-20T05:59:08;11.00;;;6.03;;
7529;SDS011;3806;52.270;10.544;2023-08-20T06:01:34;9.18;;;6.15;;
7529;SDS011;3806;52.270;10.544;2023-08-20T06:03:59;10.07;;;6.45;;
7529;SDS011;3806;52.270;10.544;2023-08-20T06:06:25;11.23;;;5.90;;
7529;SDS011;3806;52.270;10.544;2023-08-20T06:08:51;8.52;;;5.10;;
7529;SDS011;3806;52.270;10.544;2023-08-20T06:11:17;9.02;;;5.53;;
7529;SDS011;3806;52.270;10.544;2023-08-20T06:13:42;11.43;;;5.90;;
7529;SDS011;3806;52.270;10.544;2023-08-20T06:16:08;8.90;;;5.60;;
7529;SDS011;3806;52.270;10.544;2023-08-20T06:18:33;8.43;;;5.50;;
7529;SDS011;3806;52.270;10.544;2023-08-20T06:20:59;6.82;;;4.97;;
7529;SDS011;3806;52.270;10.544;2023-08-20T06:23:24;8.20;;;4.88;;
7529;SDS011;3806;52.270;10.544;2023-08-20T06:25:50;9.05;;;4.97;;
7529;SDS011;3806;52.270;10.544;2023-08-20T06:28:16;6.63;;;3.92;;
7529;SDS011;3806;52.270;10.544;2023-08-20T06:30:42;6.38;;;3.90;;
7529;SDS011;3806;52.270;10.544;2023-08-20T06:33:07;7.47;;;3.88;;
7529;SDS011;3806;52.270;10.544;2023-08-20T06:35:33;7.38;;;3.50;;
7529;SDS011;3806;52.270;10.544;2023-08-20T06:37:59;6.10;;;3.58;;
7529;SDS011;3806;52.270;10.544;2023-08-20T06:40:24;5.25;;;3.08;;
7529;SDS011;3806;52.270;10.544;2023-08-20T06:42:50;3.65;;;2.60;;
7529;SDS011;3806;52.270;10.544;2023-08-20T06:45:16;3.80;;;2.47;;
7529;SDS011;3806;52.270;10.544;2023-08-20T06:47:41;5.57;;;2.85;;
7529;SDS011;3806;52.270;10.544;2023-08-20T06:50:07;4.45;;;2.58;;
7529;SDS011;3806;52.270;10.544;2023-08-20T06:52:33;4.07;;;2.42;;
7529;SDS011;3806;52.270;10.544;2023-08-20T06:54:58;5.57;;;2.97;;
7529;SDS011;3806;52.270;10.544;2023-08-20T06:57:24;4.57;;;2.50;;
7529;SDS011;3806;52.270;10.544;2023-08-20T06:59:50;3.88;;;2.55;;
7529;SDS011;3806;52.270;10.544;2023-08-20T07:02:15;5.05;;;2.90;;
7529;SDS011;3806;52.270;10.544;2023-08-20T07:04:41;4.50;;;3.22;;
7529;SDS011;3806;52.270;10.544;2023-08-20T07:07:06;6.85;;;2.92;;
7529;SDS011;3806;52.270;10.544;2023-08-20T07:09:33;4.45;;;2.30;;
7529;SDS011;3806;52.270;10.544;2023-08-20T07:11:58;7.10;;;3.58;;
7529;SDS011;3806;52.270;10.544;2023-08-20T07:14:24;4.10;;;2.72;;
7529;SDS011;3806;52.270;10.544;2023-08-20T07:16:50;5.78;;;2.95;;
7529;SDS011;3806;52.270;10.544;2023-08-20T07:19:15;5.88;;;2.70;;
7529;SDS011;3806;52.270;10.544;2023-08-20T07:21:41;4.22;;;2.75;;
7529;SDS011;3806;52.270;10.544;2023-08-20T07:24:06;4.97;;;2.88;;
7529;SDS011;3806;52.270;10.544;2023-08-20T07:26:32;4.75;;;2.30;;
7529;SDS011;3806;52.270;10.544;2023-08-20T07:28:58;10.93;;;3.35;;
7529;SDS011;3806;52.270;10.544;2023-08-20T07:31:31;4.03;;;2.45;;
7529;SDS011;3806;52.270;10.544;2023-08-20T07:33:58;7.53;;;3.30;;
7529;SDS011;3806;52.270;10.544;2023-08-20T07:36:25;4.38;;;2.50;;
7529;SDS011;3806;52.270;10.544;2023-08-20T07:38:52;5.93;;;3.03;;
7529;SDS011;3806;52.270;10.544;2023-08-20T07:41:18;3.33;;;2.40;;
7529;SDS011;3806;52.270;10.544;2023-08-20T07:43:47;4.90;;;2.70;;
7529;SDS011;3806;52.270;10.544;2023-08-20T07:46:14;3.88;;;2.63;;
7529;SDS011;3806;52.270;10.544;2023-08-20T07:48:40;4.97;;;2.92;;
7529;SDS011;3806;52.270;10.544;2023-08-20T07:51:06;3.03;;;2.20;;
7529;SDS011;3806;52.270;10.544;2023-08-20T07:53:32;3.50;;;2.35;;
7529;SDS011;3806;52.270;10.544;2023-08-20T07:55:58;6.93;;;2.40;;
7529;SDS011;3806;52.270;10.544;2023-08-20T07:58:24;3.15;;;2.30;;
7529;SDS011;3806;52.270;10.544;2023-08-20T08:00:50;4.22;;;2.30;;
7529;SDS011;3806;52.270;10.544;2023-08-20T08:03:16;4.53;;;2.35;;
7529;SDS011;3806;52.270;10.544;2023-08-20T08:05:45;3.97;;;2.53;;
7529;SDS011;3806;52.270;10.544;2023-08-20T08:08:11;3.20;;;2.55;;
7529;SDS011;3806;52.270;10.544;2023-08-20T08:10:37;4.47;;;2.58;;
7529;SDS011;3806;52.270;10.544;2023-08-20T08:13:03;4.05;;;2.65;;
7529;SDS011;3806;52.270;10.544;2023-08-20T08:15:28;3.35;;;2.60;;
7529;SDS011;3806;52.270;10.544;2023-08-20T08:17:54;5.85;;;2.60;;
7529;SDS011;3806;52.270;10.544;2023-08-20T08:20:19;3.65;;;2.38;;
7529;SDS011;3806;52.270;10.544;2023-08-20T08:22:45;4.47;;;3.10;;
7529;SDS011;3806;52.270;10.544;2023-08-20T08:25:10;4.88;;;2.90;;
7529;SDS011;3806;52.270;10.544;2023-08-20T08:27:36;4.95;;;2.70;;
7529;SDS011;3806;52.270;10.544;2023-08-20T08:30:01;3.50;;;2.40;;
7529;SDS011;3806;52.270;10.544;2023-08-20T08:32:27;4.68;;;3.08;;
7529;SDS011;3806;52.270;10.544;2023-08-20T08:34:53;6.25;;;2.65;;
7529;SDS011;3806;52.270;10.544;2023-08-20T08:37:19;4.32;;;3.10;;
7529;SDS011;3806;52.270;10.544;2023-08-20T08:39:44;3.30;;;2.40;;
7529;SDS011;3806;52.270;10.544;2023-08-20T08:42:10;4.10;;;2.28;;
7529;SDS011;3806;52.270;10.544;2023-08-20T08:44:37;3.60;;;2.47;;
7529;SDS011;3806;52.270;10.544;2023-08-20T08:47:04;4.60;;;2.53;;
7529;SDS011;3806;52.270;10.544;2023-08-20T08:49:32;3.17;;;2.45;;
7529;SDS011;3806;52.270;10.544;2023-08-20T08:51:59;3.45;;;2.42;;
7529;SDS011;3806;52.270;10.544;2023-08-20T08:54:25;5.72;;;2.67;;
7529;SDS011;3806;52.270;10.544;2023-08-20T08:56:51;2.88;;;2.00;;
7529;SDS011;3806;52.270;10.544;2023-08-20T08:59:17;4.32;;;2.22;;
7529;SDS011;3806;52.270;10.544;2023-08-20T09:01:43;5.38;;;2.28;;
7529;SDS011;3806;52.270;10.544;2023-08-20T09:04:09;4.38;;;2.15;;
7529;SDS011;3806;52.270;10.544;2023-08-20T09:06:44;5.00;;;2.60;;
7529;SDS011;3806;52.270;10.544;2023-08-20T09:09:13;3.42;;;2.38;;
7529;SDS011;3806;52.270;10.544;2023-08-20T09:11:39;3.60;;;2.40;;
7529;SDS011;3806;52.270;10.544;2023-08-20T09:14:05;3.50;;;2.33;;
7529;SDS011;3806;52.270;10.544;2023-08-20T09:16:30;5.60;;;2.10;;
7529;SDS011;3806;52.270;10.544;2023-08-20T09:18:58;3.55;;;1.85;;
7529;SDS011;3806;52.270;10.544;2023-08-20T09:21:28;3.25;;;1.98;;
7529;SDS011;3806;52.270;10.544;2023-08-20T09:23:54;1.77;;;1.48;;
7529;SDS011;3806;52.270;10.544;2023-08-20T09:26:21;2.47;;;1.92;;
7529;SDS011;3806;52.270;10.544;2023-08-20T09:28:47;3.10;;;2.15;;
7529;SDS011;3806;52.270;10.544;2023-08-20T09:31:12;3.47;;;1.90;;
7529;SDS011;3806;52.270;10.544;2023-08-20T09:33:51;3.67;;;2.17;;
7529;SDS011;3806;52.270;10.544;2023-08-20T09:36:18;7.00;;;2.35;;
7529;SDS011;3806;52.270;10.544;2023-08-20T09:38:44;5.18;;;2.03;;
7529;SDS011;3806;52.270;10.544;2023-08-20T09:41:09;3.20;;;1.92;;
7529;SDS011;3806;52.270;10.544;2023-08-20T09:43:38;5.60;;;1.90;;
7529;SDS011;3806;52.270;10.544;2023-08-20T09:46:04;2.40;;;1.60;;
7529;SDS011;3806;52.270;10.544;2023-08-20T09:48:34;3.92;;;1.90;;
7529;SDS011;3806;52.270;10.544;2023-08-20T09:51:01;1.88;;;1.40;;
7529;SDS011;3806;52.270;10.544;2023-08-20T09:53:37;2.88;;;1.80;;
7529;SDS011;3806;52.270;10.544;2023-08-20T09:56:11;1.95;;;1.40;;
7529;SDS011;3806;52.270;10.544;2023-08-20T09:58:44;2.75;;;1.48;;
7529;SDS011;3806;52.270;10.544;2023-08-20T10:01:11;3.67;;;1.92;;
7529;SDS011;3806;52.270;10.544;2023-08-20T10:03:37;3.72;;;1.60;;
7529;SDS011;3806;52.270;10.544;2023-08-20T10:06:03;5.75;;;1.95;;
7529;SDS011;3806;52.270;10.544;2023-08-20T10:08:29;2.25;;;1.50;;
7529;SDS011;3806;52.270;10.544;2023-08-20T10:10:55;2.30;;;1.80;;
7529;SDS011;3806;52.270;10.544;2023-08-20T10:13:21;3.80;;;2.00;;
7529;SDS011;3806;52.270;10.544;2023-08-20T10:15:46;6.30;;;1.58;;
7529;SDS011;3806;52.270;10.544;2023-08-20T10:18:12;2.40;;;1.58;;
7529;SDS011;3806;52.270;10.544;2023-08-20T10:20:38;2.80;;;1.45;;
7529;SDS011;3806;52.270;10.544;2023-08-20T10:23:06;4.28;;;1.90;;
7529;SDS011;3806;52.270;10.544;2023-08-20T10:25:31;2.00;;;1.70;;
7529;SDS011;3806;52.270;10.544;2023-08-20T10:28:14;3.40;;;1.48;;
7529;SDS011;3806;52.270;10.544;2023-08-20T10:31:25;2.83;;;1.70;;
7529;SDS011;3806;52.270;10.544;2023-08-20T10:36:22;2.40;;;1.80;;
7529;SDS011;3806;52.270;10.544;2023-08-20T10:38:53;3.45;;;1.85;;
7529;SDS011;3806;52.270;10.544;2023-08-20T10:41:26;3.88;;;1.60;;
7529;SDS011;3806;52.270;10.544;2023-08-20T10:43:54;3.15;;;1.70;;
7529;SDS011;3806;52.270;10.544;2023-08-20T10:46:26;2.70;;;1.45;;
7529;SDS011;3806;52.270;10.544;2023-08-20T10:48:58;2.95;;;1.60;;
7529;SDS011;3806;52.270;10.544;2023-08-20T10:51:30;2.15;;;1.50;;
7529;SDS011;3806;52.270;10.544;2023-08-20T10:59:13;3.30;;;1.55;;
7529;SDS011;3806;52.270;10.544;2023-08-20T11:01:44;2.38;;;1.70;;
7529;SDS011;3806;52.270;10.544;2023-08-20T11:04:14;2.05;;;1.33;;
7529;SDS011;3806;52.270;10.544;2023-08-20T11:06:41;5.93;;;1.58;;
7529;SDS011;3806;52.270;10.544;2023-08-20T11:09:08;2.75;;;1.55;;
7529;SDS011;3806;52.270;10.544;2023-08-20T11:11:33;4.07;;;1.27;;
7529;SDS011;3806;52.270;10.544;2023-08-20T11:14:06;2.22;;;1.40;;
7529;SDS011;3806;52.270;10.544;2023-08-20T11:16:33;3.73;;;1.83;;
7529;SDS011;3806;52.270;10.544;2023-08-20T11:18:59;3.15;;;1.70;;
7529;SDS011;3806;52.270;10.544;2023-08-20T11:21:25;2.80;;;1.80;;
7529;SDS011;3806;52.270;10.544;2023-08-20T11:23:53;3.13;;;1.63;;
7529;SDS011;3806;52.270;10.544;2023-08-20T11:26:20;2.25;;;1.67;;
7529;SDS011;3806;52.270;10.544;2023-08-20T11:28:45;2.38;;;1.60;;
7529;SDS011;3806;52.270;10.544;2023-08-20T11:31:11;2.88;;;1.40;;
7529;SDS011;3806;52.270;10.544;2023-08-20T11:33:37;3.15;;;1.70;;
7529;SDS011;3806;52.270;10.544;2023-08-20T11:36:04;3.17;;;1.75;;
7529;SDS011;3806;52.270;10.544;2023-08-20T11:38:30;2.67;;;1.65;;
7529;SDS011;3806;52.270;10.544;2023-08-20T11:40:57;2.00;;;1.42;;
7529;SDS011;3806;52.270;10.544;2023-08-20T11:43:24;3.55;;;1.60;;
7529;SDS011;3806;52.270;10.544;2023-08-20T11:45:53;2.80;;;1.80;;
7529;SDS011;3806;52.270;10.544;2023-08-20T11:48:19;3.30;;;1.40;;
7529;SDS011;3806;52.270;10.544;2023-08-20T11:50:51;2.75;;;1.60;;
7529;SDS011;3806;52.270;10.544;2023-08-20T11:53:20;2.58;;;1.65;;
7529;SDS011;3806;52.270;10.544;2023-08-20T11:55:48;3.60;;;1.83;;
7529;SDS011;3806;52.270;10.544;2023-08-20T11:58:14;2.90;;;1.67;;
7529;SDS011;3806;52.270;10.544;2023-08-20T12:00:39;2.63;;;1.70;;
7529;SDS011;3806;52.270;10.544;2023-08-20T12:03:05;3.85;;;1.70;;
7529;SDS011;3806;52.270;10.544;2023-08-20T12:05:32;3.33;;;1.50;;
7529;SDS011;3806;52.270;10.544;2023-08-20T12:08:02;2.92;;;1.75;;
7529;SDS011;3806;52.270;10.544;2023-08-20T12:10:29;4.15;;;2.10;;
7529;SDS011;3806;52.270;10.544;2023-08-20T12:12:56;3.33;;;1.80;;
7529;SDS011;3806;52.270;10.544;2023-08-20T12:15:23;2.95;;;1.73;;
7529;SDS011;3806;52.270;10.544;2023-08-20T12:17:56;3.53;;;1.80;;
7529;SDS011;3806;52.270;10.544;2023-08-20T12:20:29;5.13;;;2.00;;
7529;SDS011;3806;52.270;10.544;2023-08-20T12:22:57;9.07;;;1.90;;
7529;SDS011;3806;52.270;10.544;2023-08-20T12:25:29;2.67;;;1.70;;
7529;SDS011;3806;52.270;10.544;2023-08-20T12:27:56;3.47;;;1.90;;
7529;SDS011;3806;52.270;10.544;2023-08-20T12:30:21;3.10;;;1.73;;
7529;SDS011;3806;52.270;10.544;2023-08-20T12:32:47;3.03;;;1.60;;
7529;SDS011;3806;52.270;10.544;2023-08-20T12:35:12;5.03;;;1.90;;
7529;SDS011;3806;52.270;10.544;2023-08-20T12:37:38;2.50;;;1.70;;
7529;SDS011;3806;52.270;10.544;2023-08-20T12:40:04;2.38;;;1.77;;
7529;SDS011;3806;52.270;10.544;2023-08-20T12:42:35;3.10;;;1.70;;
7529;SDS011;3806;52.270;10.544;2023-08-20T12:45:01;2.97;;;1.77;;
7529;SDS011;3806;52.270;10.544;2023-08-20T12:47:27;4.38;;;1.92;;
7529;SDS011;3806;52.270;10.544;2023-08-20T12:49:53;3.83;;;1.80;;
7529;SDS011;3806;52.270;10.544;2023-08-20T12:52:19;4.88;;;2.00;;
7529;SDS011;3806;52.270;10.544;2023-08-20T12:54:44;4.03;;;2.10;;
7529;SDS011;3806;52.270;10.544;2023-08-20T12:57:10;3.35;;;1.90;;
7529;SDS011;3806;52.270;10.544;2023-08-20T12:59:35;3.40;;;1.85;;
7529;SDS011;3806;52.270;10.544;2023-08-20T13:02:01;2.10;;;1.60;;
7529;SDS011;3806;52.270;10.544;2023-08-20T13:04:27;3.28;;;1.95;;
7529;SDS011;3806;52.270;10.544;2023-08-20T13:06:53;3.38;;;2.10;;
7529;SDS011;3806;52.270;10.544;2023-08-20T13:09:19;2.50;;;1.92;;
7529;SDS011;3806;52.270;10.544;2023-08-20T13:11:44;3.00;;;1.70;;
7529;SDS011;3806;52.270;10.544;2023-08-20T13:14:13;4.90;;;1.60;;
7529;SDS011;3806;52.270;10.544;2023-08-20T13:16:39;2.15;;;1.70;;
7529;SDS011;3806;52.270;10.544;2023-08-20T13:19:04;2.83;;;1.80;;
7529;SDS011;3806;52.270;10.544;2023-08-20T13:21:30;3.80;;;2.00;;
7529;SDS011;3806;52.270;10.544;2023-08-20T13:23:56;3.90;;;1.90;;
7529;SDS011;3806;52.270;10.544;2023-08-20T13:26:21;4.20;;;2.33;;
7529;SDS011;3806;52.270;10.544;2023-08-20T13:28:47;4.13;;;1.85;;
7529;SDS011;3806;52.270;10.544;2023-08-20T13:31:13;2.88;;;1.98;;
7529;SDS011;3806;52.270;10.544;2023-08-20T13:33:39;3.10;;;2.33;;
7529;SDS011;3806;52.270;10.544;2023-08-20T13:36:05;3.72;;;1.80;;
7529;SDS011;3806;52.270;10.544;2023-08-20T13:38:32;4.45;;;1.85;;
7529;SDS011;3806;52.270;10.544;2023-08-20T13:40:57;4.65;;;1.92;;
7529;SDS011;3806;52.270;10.544;2023-08-20T13:43:23;3.08;;;1.92;;
7529;SDS011;3806;52.270;10.544;2023-08-20T13:45:49;2.42;;;1.85;;
7529;SDS011;3806;52.270;10.544;2023-08-20T13:48:14;2.95;;;1.85;;
7529;SDS011;3806;52.270;10.544;2023-08-20T13:50:40;2.80;;;2.00;;
7529;SDS011;3806;52.270;10.544;2023-08-20T13:53:05;4.13;;;1.92;;
7529;SDS011;3806;52.270;10.544;2023-08-20T13:55:31;4.05;;;2.00;;
7529;SDS011;3806;52.270;10.544;2023-08-20T13:57:56;4.00;;;1.70;;
7529;SDS011;3806;52.270;10.544;2023-08-20T14:00:22;3.80;;;1.75;;
7529;SDS011;3806;52.270;10.544;2023-08-20T14:02:47;4.10;;;2.10;;
7529;SDS011;3806;52.270;10.544;2023-08-20T14:05:13;3.20;;;1.80;;
7529;SDS011;3806;52.270;10.544;2023-08-20T14:07:39;4.30;;;2.20;;
7529;SDS011;3806;52.270;10.544;2023-08-20T14:10:05;4.57;;;2.00;;
7529;SDS011;3806;52.270;10.544;2023-08-20T14:12:32;2.15;;;1.73;;
7529;SDS011;3806;52.270;10.544;2023-08-20T14:14:58;4.57;;;1.95;;
7529;SDS011;3806;52.270;10.544;2023-08-20T14:17:23;4.10;;;1.85;;
7529;SDS011;3806;52.270;10.544;2023-08-20T14:19:49;3.38;;;1.58;;
7529;SDS011;3806;52.270;10.544;2023-08-20T14:22:14;3.03;;;1.83;;
7529;SDS011;3806;52.270;10.544;2023-08-20T14:24:40;2.70;;;1.80;;
7529;SDS011;3806;52.270;10.544;2023-08-20T14:27:05;2.90;;;1.80;;
7529;SDS011;3806;52.270;10.544;2023-08-20T14:29:32;3.00;;;1.88;;
7529;SDS011;3806;52.270;10.544;2023-08-20T14:31:58;2.92;;;2.10;;
7529;SDS011;3806;52.270;10.544;2023-08-20T14:34:23;3.20;;;1.70;;
7529;SDS011;3806;52.270;10.544;2023-08-20T14:36:49;3.88;;;1.70;;
7529;SDS011;3806;52.270;10.544;2023-08-20T14:39:14;5.28;;;2.20;;
7529;SDS011;3806;52.270;10.544;2023-08-20T14:41:40;5.38;;;2.00;;
7529;SDS011;3806;52.270;10.544;2023-08-20T14:44:05;2.65;;;1.80;;
7529;SDS011;3806;52.270;10.544;2023-08-20T14:46:31;2.53;;;1.55;;
7529;SDS011;3806;52.270;10.544;2023-08-20T14:48:56;3.22;;;2.20;;
7529;SDS011;3806;52.270;10.544;2023-08-20T14:51:22;3.03;;;1.60;;
7529;SDS011;3806;52.270;10.544;2023-08-20T14:53:47;4.13;;;2.20;;
7529;SDS011;3806;52.270;10.544;2023-08-20T14:56:13;6.07;;;2.20;;
7529;SDS011;3806;52.270;10.544;2023-08-20T14:58:38;4.82;;;2.42;;
7529;SDS011;3806;52.270;10.544;2023-08-20T15:01:04;5.13;;;2.20;;
7529;SDS011;3806;52.270;10.544;2023-08-20T15:03:29;4.70;;;2.15;;
7529;SDS011;3806;52.270;10.544;2023-08-20T15:05:55;4.07;;;2.03;;